sensor_id;sensor_type;location;lat;lon;timestamp;temperature;humidity
63219;DHT22;49320;52.512;13.448;2024-02-23T00:02:14;14.00;88.10
63219;DHT22;49320;52.512;13.448;2024-02-23T00:04:41;13.90;88.10
63219;DHT22;49320;52.512;13.448;2024-02-23T00:07:08;13.90;88.00
63219;DHT22;49320;52.512;13.448;2024-02-23T00:09:35;13.90;88.00
63219;DHT22;49320;52.512;13.448;2024-02-23T00:12:02;13.90;88.00
63219;DHT22;49320;52.512;13.448;2024-02-23T00:14:30;13.90;88.00
63219;DHT22;49320;52.512;13.448;2024-02-23T00:16:58;14.10;88.10
63219;DHT22;49320;52.512;13.448;2024-02-23T00:19:25;13.90;88.10
63219;DHT22;49320;52.512;13.448;2024-02-23T00:21:52;13.90;88.10
63219;DHT22;49320;52.512;13.448;2024-02-23T00:24:20;13.90;88.20
63219;DHT22;49320;52.512;13.448;2024-02-23T00:26:48;13.90;88.20
63219;DHT22;49320;52.512;13.448;2024-02-23T00:29:15;13.90;88.30
63219;DHT22;49320;52.512;13.448;2024-02-23T00:31:43;13.90;88.10
63219;DHT22;49320;52.512;13.448;2024-02-23T00:34:12;14.00;88.10
63219;DHT22;49320;52.512;13.448;2024-02-23T00:36:41;14.00;88.00
63219;DHT22;49320;52.512;13.448;2024-02-23T00:41:36;14.00;87.20
63219;DHT22;49320;52.512;13.448;2024-02-23T00:44:03;14.00;87.70
63219;DHT22;49320;52.512;13.448;2024-02-23T00:46:30;14.00;87.50
63219;DHT22;49320;52.512;13.448;2024-02-23T00:48:57;13.90;87.40
63219;DHT22;49320;52.512;13.448;2024-02-23T00:51:24;14.00;87.50
63219;DHT22;49320;52.512;13.448;2024-02-23T00:53:51;14.00;87.30
63219;DHT22;49320;52.512;13.448;2024-02-23T00:56:18;14.00;87.30
63219;DHT22;49320;52.512;13.448;2024-02-23T00:58:50;14.00;87.40
63219;DHT22;49320;52.512;13.448;2024-02-23T01:01:17;14.00;87.30
63219;DHT22;49320;52.512;13.448;2024-02-23T01:03:44;14.00;87.20
63219;DHT22;49320;52.512;13.448;2024-02-23T01:08:38;15.10;87.30
63219;DHT22;49320;52.512;13.448;2024-02-23T01:11:06;13.90;87.20
63219;DHT22;49320;52.512;13.448;2024-02-23T01:13:33;14.00;87.20
63219;DHT22;49320;52.512;13.448;2024-02-23T01:16:00;14.00;86.60
63219;DHT22;49320;52.512;13.448;2024-02-23T01:18:27;14.00;87.00
63219;DHT22;49320;52.512;13.448;2024-02-23T01:20:56;14.00;86.80
63219;DHT22;49320;52.512;13.448;2024-02-23T01:25:51;14.00;86.20
63219;DHT22;49320;52.512;13.448;2024-02-23T01:28:17;14.00;86.70
63219;DHT22;49320;52.512;13.448;2024-02-23T01:30:45;14.00;85.80
63219;DHT22;49320;52.512;13.448;2024-02-23T01:33:12;14.00;86.30
63219;DHT22;49320;52.512;13.448;2024-02-23T01:35:39;14.00;86.30
63219;DHT22;49320;52.512;13.448;2024-02-23T01:38:06;14.00;86.10
63219;DHT22;49320;52.512;13.448;2024-02-23T01:43:03;14.00;85.30
63219;DHT22;49320;52.512;13.448;2024-02-23T01:45:31;14.10;85.80
63219;DHT22;49320;52.512;13.448;2024-02-23T01:47:59;14.10;85.00
63219;DHT22;49320;52.512;13.448;2024-02-23T01:50:27;14.10;85.30
63219;DHT22;49320;52.512;13.448;2024-02-23T01:52:58;14.10;85.10
63219;DHT22;49320;52.512;13.448;2024-02-23T01:55:27;14.00;83.90
63219;DHT22;49320;52.512;13.448;2024-02-23T01:57:58;14.10;84.30
63219;DHT22;49320;52.512;13.448;2024-02-23T02:00:26;14.20;83.70
63219;DHT22;49320;52.512;13.448;2024-02-23T02:02:53;14.50;82.60
63219;DHT22;49320;52.512;13.448;2024-02-23T02:05:20;14.20;81.80
63219;DHT22;49320;52.512;13.448;2024-02-23T02:07:49;13.10;81.50
63219;DHT22;49320;52.512;13.448;2024-02-23T02:10:20;13.80;81.10
63219;DHT22;49320;52.512;13.448;2024-02-23T02:12:48;14.30;81.50
63219;DHT22;49320;52.512;13.448;2024-02-23T02:15:14;14.30;80.20
63219;DHT22;49320;52.512;13.448;2024-02-23T02:17:41;14.20;79.00
63219;DHT22;49320;52.512;13.448;2024-02-23T02:20:12;14.30;79.40
63219;DHT22;49320;52.512;13.448;2024-02-23T02:22:40;14.30;78.60
63219;DHT22;49320;52.512;13.448;2024-02-23T02:25:07;14.30;78.50
63219;DHT22;49320;52.512;13.448;2024-02-23T02:27:34;14.40;76.10
63219;DHT22;49320;52.512;13.448;2024-02-23T02:30:01;14.40;77.20
63219;DHT22;49320;52.512;13.448;2024-02-23T02:32:29;14.30;76.20
63219;DHT22;49320;52.512;13.448;2024-02-23T02:35:01;14.40;75.60
63219;DHT22;49320;52.512;13.448;2024-02-23T02:37:28;14.30;73.40
63219;DHT22;49320;52.512;13.448;2024-02-23T02:39:55;14.30;74.40
63219;DHT22;49320;52.512;13.448;2024-02-23T02:42:21;13.40;72.10
63219;DHT22;49320;52.512;13.448;2024-02-23T02:44:48;14.30;71.90
63219;DHT22;49320;52.512;13.448;2024-02-23T02:47:15;14.20;71.40
63219;DHT22;49320;52.512;13.448;2024-02-23T02:49:42;14.20;71.20
63219;DHT22;49320;52.512;13.448;2024-02-23T02:52:09;14.20;71.20
63219;DHT22;49320;52.512;13.448;2024-02-23T02:54:36;14.10;69.00
63219;DHT22;49320;52.512;13.448;2024-02-23T02:57:02;14.20;67.80
63219;DHT22;49320;52.512;13.448;2024-02-23T02:59:29;14.00;68.20
63219;DHT22;49320;52.512;13.448;2024-02-23T03:02:00;13.90;68.30
63219;DHT22;49320;52.512;13.448;2024-02-23T03:04:27;13.90;68.60
63219;DHT22;49320;52.512;13.448;2024-02-23T03:06:54;13.90;65.60
63219;DHT22;49320;52.512;13.448;2024-02-23T03:09:21;13.90;68.00
63219;DHT22;49320;52.512;13.448;2024-02-23T03:11:47;13.80;68.60
63219;DHT22;49320;52.512;13.448;2024-02-23T03:14:15;13.80;68.20
63219;DHT22;49320;52.512;13.448;2024-02-23T03:19:14;13.70;67.40
63219;DHT22;49320;52.512;13.448;2024-02-23T03:21:42;13.70;66.90
63219;DHT22;49320;52.512;13.448;2024-02-23T03:24:08;13.60;68.00
63219;DHT22;49320;52.512;13.448;2024-02-23T03:26:35;13.60;65.00
63219;DHT22;49320;52.512;13.448;2024-02-23T03:29:02;13.50;67.10
63219;DHT22;49320;52.512;13.448;2024-02-23T03:31:29;13.50;67.00
63219;DHT22;49320;52.512;13.448;2024-02-23T03:33:56;13.50;63.90
63219;DHT22;49320;52.512;13.448;2024-02-23T03:36:23;13.30;65.90
63219;DHT22;49320;52.512;13.448;2024-02-23T03:38:51;13.30;66.60
63219;DHT22;49320;52.512;13.448;2024-02-23T03:41:18;13.30;65.70
63219;DHT22;49320;52.512;13.448;2024-02-23T03:43:44;13.30;66.20
63219;DHT22;49320;52.512;13.448;2024-02-23T03:46:11;13.30;66.40
63219;DHT22;49320;52.512;13.448;2024-02-23T03:48:38;13.20;64.60
63219;DHT22;49320;52.512;13.448;2024-02-23T03:51:05;13.20;65.70
63219;DHT22;49320;52.512;13.448;2024-02-23T03:53:32;13.10;66.20
63219;DHT22;49320;52.512;13.448;2024-02-23T03:55:59;13.10;65.80
63219;DHT22;49320;52.512;13.448;2024-02-23T03:58:26;13.00;66.20
63219;DHT22;49320;52.512;13.448;2024-02-23T04:00:53;13.00;65.70
63219;DHT22;49320;52.512;13.448;2024-02-23T04:03:20;13.00;65.50
63219;DHT22;49320;52.512;13.448;2024-02-23T04:05:47;13.00;64.50
63219;DHT22;49320;52.512;13.448;2024-02-23T04:08:13;12.90;65.70
63219;DHT22;49320;52.512;13.448;2024-02-23T04:10:40;12.90;64.10
63219;DHT22;49320;52.512;13.448;2024-02-23T04:13:07;12.90;65.90
63219;DHT22;49320;52.512;13.448;2024-02-23T04:15:34;12.90;64.60
63219;DHT22;49320;52.512;13.448;2024-02-23T04:18:02;12.80;65.80
63219;DHT22;49320;52.512;13.448;2024-02-23T04:20:29;12.80;65.70
63219;DHT22;49320;52.512;13.448;2024-02-23T04:22:56;12.70;65.90
63219;DHT22;49320;52.512;13.448;2024-02-23T04:25:23;12.80;65.90
63219;DHT22;49320;52.512;13.448;2024-02-23T04:27:50;12.70;66.10
63219;DHT22;49320;52.512;13.448;2024-02-23T04:30:17;12.70;66.00
63219;DHT22;49320;52.512;13.448;2024-02-23T04:32:44;12.70;66.00
63219;DHT22;49320;52.512;13.448;2024-02-23T04:35:11;12.70;64.60
63219;DHT22;49320;52.512;13.448;2024-02-23T04:37:38;12.60;65.50
63219;DHT22;49320;52.512;13.448;2024-02-23T04:40:06;12.70;65.80
63219;DHT22;49320;52.512;13.448;2024-02-23T04:42:33;12.60;64.60
63219;DHT22;49320;52.512;13.448;2024-02-23T04:45:01;12.60;64.70
63219;DHT22;49320;52.512;13.448;2024-02-23T04:47:28;12.60;64.80
63219;DHT22;49320;52.512;13.448;2024-02-23T04:49:55;12.60;64.80
63219;DHT22;49320;52.512;13.448;2024-02-23T04:52:22;12.50;64.50
63219;DHT22;49320;52.512;13.448;2024-02-23T04:54:49;12.50;64.70
63219;DHT22;49320;52.512;13.448;2024-02-23T04:57:15;12.50;64.60
63219;DHT22;49320;52.512;13.448;2024-02-23T04:59:42;12.50;64.70
63219;DHT22;49320;52.512;13.448;2024-02-23T05:02:09;12.60;64.40
63219;DHT22;49320;52.512;13.448;2024-02-23T05:04:36;12.50;64.50
63219;DHT22;49320;52.512;13.448;2024-02-23T05:07:03;12.60;64.70
63219;DHT22;49320;52.512;13.448;2024-02-23T05:09:30;12.50;63.00
63219;DHT22;49320;52.512;13.448;2024-02-23T05:11:58;12.50;65.20
63219;DHT22;49320;52.512;13.448;2024-02-23T05:14:25;12.40;64.30
63219;DHT22;49320;52.512;13.448;2024-02-23T05:16:53;12.40;63.10
63219;DHT22;49320;52.512;13.448;2024-02-23T05:19:20;12.40;64.60
63219;DHT22;49320;52.512;13.448;2024-02-23T05:21:47;12.40;64.10
63219;DHT22;49320;52.512;13.448;2024-02-23T05:24:14;12.40;62.40
63219;DHT22;49320;52.512;13.448;2024-02-23T05:26:40;12.40;62.10
63219;DHT22;49320;52.512;13.448;2024-02-23T05:29:07;12.40;62.90
63219;DHT22;49320;52.512;13.448;2024-02-23T05:31:46;12.30;61.60
63219;DHT22;49320;52.512;13.448;2024-02-23T05:34:15;12.30;62.50
63219;DHT22;49320;52.512;13.448;2024-02-23T05:36:42;12.30;63.30
63219;DHT22;49320;52.512;13.448;2024-02-23T05:39:09;12.30;63.50
63219;DHT22;49320;52.512;13.448;2024-02-23T05:44:04;12.20;62.60
63219;DHT22;49320;52.512;13.448;2024-02-23T05:46:36;12.20;62.70
63219;DHT22;49320;52.512;13.448;2024-02-23T05:49:04;12.20;62.90
63219;DHT22;49320;52.512;13.448;2024-02-23T05:51:31;12.10;59.80
63219;DHT22;49320;52.512;13.448;2024-02-23T05:53:58;12.00;61.90
63219;DHT22;49320;52.512;13.448;2024-02-23T05:56:25;12.00;62.50
63219;DHT22;49320;52.512;13.448;2024-02-23T05:58:52;11.90;60.50
63219;DHT22;49320;52.512;13.448;2024-02-23T06:01:19;11.90;62.70
63219;DHT22;49320;52.512;13.448;2024-02-23T06:03:46;11.80;61.50
63219;DHT22;49320;52.512;13.448;2024-02-23T06:06:13;11.70;60.90
63219;DHT22;49320;52.512;13.448;2024-02-23T06:08:40;11.70;62.30
63219;DHT22;49320;52.512;13.448;2024-02-23T06:11:09;11.60;61.40
63219;DHT22;49320;52.512;13.448;2024-02-23T06:13:37;11.60;62.00
63219;DHT22;49320;52.512;13.448;2024-02-23T06:16:05;11.50;62.20
63219;DHT22;49320;52.512;13.448;2024-02-23T06:18:36;11.50;62.50
63219;DHT22;49320;52.512;13.448;2024-02-23T06:21:20;11.50;62.60
63219;DHT22;49320;52.512;13.448;2024-02-23T06:23:46;11.40;62.10
63219;DHT22;49320;52.512;13.448;2024-02-23T06:26:13;11.40;61.10
63219;DHT22;49320;52.512;13.448;2024-02-23T06:31:09;11.40;62.30
63219;DHT22;49320;52.512;13.448;2024-02-23T06:33:36;11.30;62.50
63219;DHT22;49320;52.512;13.448;2024-02-23T06:36:03;11.30;61.70
63219;DHT22;49320;52.512;13.448;2024-02-23T06:38:31;11.30;61.10
63219;DHT22;49320;52.512;13.448;2024-02-23T06:40:58;11.30;62.70
63219;DHT22;49320;52.512;13.448;2024-02-23T06:43:25;11.30;62.70
63219;DHT22;49320;52.512;13.448;2024-02-23T06:45:52;11.20;62.50
63219;DHT22;49320;52.512;13.448;2024-02-23T06:48:19;11.20;62.30
63219;DHT22;49320;52.512;13.448;2024-02-23T06:50:46;11.20;62.50
63219;DHT22;49320;52.512;13.448;2024-02-23T06:53:14;11.20;62.30
63219;DHT22;49320;52.512;13.448;2024-02-23T06:55:41;11.20;62.40
63219;DHT22;49320;52.512;13.448;2024-02-23T06:58:08;11.20;62.40
63219;DHT22;49320;52.512;13.448;2024-02-23T07:00:37;11.20;62.70
63219;DHT22;49320;52.512;13.448;2024-02-23T07:03:04;11.20;62.70
63219;DHT22;49320;52.512;13.448;2024-02-23T07:05:31;11.20;62.60
63219;DHT22;49320;52.512;13.448;2024-02-23T07:07:59;11.20;62.60
63219;DHT22;49320;52.512;13.448;2024-02-23T07:10:26;11.20;63.50
63219;DHT22;49320;52.512;13.448;2024-02-23T07:12:53;11.30;61.60
63219;DHT22;49320;52.512;13.448;2024-02-23T07:15:20;11.30;62.80
63219;DHT22;49320;52.512;13.448;2024-02-23T07:17:47;11.30;62.60
63219;DHT22;49320;52.512;13.448;2024-02-23T07:20:14;11.40;62.50
63219;DHT22;49320;52.512;13.448;2024-02-23T07:22:44;11.30;62.50
63219;DHT22;49320;52.512;13.448;2024-02-23T07:25:18;11.20;62.40
63219;DHT22;49320;52.512;13.448;2024-02-23T07:27:50;11.40;61.20
63219;DHT22;49320;52.512;13.448;2024-02-23T07:30:17;11.40;62.50
63219;DHT22;49320;52.512;13.448;2024-02-23T07:32:44;11.30;61.90
63219;DHT22;49320;52.512;13.448;2024-02-23T07:35:18;11.50;62.40
63219;DHT22;49320;52.512;13.448;2024-02-23T07:37:45;11.30;62.50
63219;DHT22;49320;52.512;13.448;2024-02-23T07:40:13;11.30;62.30
63219;DHT22;49320;52.512;13.448;2024-02-23T07:42:42;11.50;62.60
63219;DHT22;49320;52.512;13.448;2024-02-23T07:45:10;11.50;62.40
63219;DHT22;49320;52.512;13.448;2024-02-23T07:47:37;11.60;62.60
63219;DHT22;49320;52.512;13.448;2024-02-23T07:50:04;10.90;62.10
63219;DHT22;49320;52.512;13.448;2024-02-23T07:52:32;11.70;60.90
63219;DHT22;49320;52.512;13.448;2024-02-23T07:55:00;11.70;62.50
63219;DHT22;49320;52.512;13.448;2024-02-23T07:57:29;11.70;62.50
63219;DHT22;49320;52.512;13.448;2024-02-23T07:59:57;11.80;61.30
63219;DHT22;49320;52.512;13.448;2024-02-23T08:02:24;11.80;62.80
63219;DHT22;49320;52.512;13.448;2024-02-23T08:04:51;11.80;62.50
63219;DHT22;49320;52.512;13.448;2024-02-23T08:07:19;11.80;62.20
63219;DHT22;49320;52.512;13.448;2024-02-23T08:09:46;11.90;62.50
63219;DHT22;49320;52.512;13.448;2024-02-23T08:12:12;11.90;62.30
63219;DHT22;49320;52.512;13.448;2024-02-23T08:14:40;12.00;60.80
63219;DHT22;49320;52.512;13.448;2024-02-23T08:17:09;12.00;62.30
63219;DHT22;49320;52.512;13.448;2024-02-23T08:19:36;12.00;62.50
63219;DHT22;49320;52.512;13.448;2024-02-23T08:22:03;12.00;62.30
63219;DHT22;49320;52.512;13.448;2024-02-23T08:24:30;12.10;62.20
63219;DHT22;49320;52.512;13.448;2024-02-23T08:26:57;12.10;60.90
63219;DHT22;49320;52.512;13.448;2024-02-23T08:29:25;12.20;62.80
63219;DHT22;49320;52.512;13.448;2024-02-23T08:31:53;15.30;63.90
63219;DHT22;49320;52.512;13.448;2024-02-23T08:34:20;12.30;62.10
63219;DHT22;49320;52.512;13.448;2024-02-23T08:36:47;12.30;62.10
63219;DHT22;49320;52.512;13.448;2024-02-23T08:39:14;12.30;62.00
63219;DHT22;49320;52.512;13.448;2024-02-23T08:41:40;12.40;62.10
63219;DHT22;49320;52.512;13.448;2024-02-23T08:44:07;12.40;61.60
63219;DHT22;49320;52.512;13.448;2024-02-23T08:46:34;12.40;61.50
63219;DHT22;49320;52.512;13.448;2024-02-23T08:49:01;12.50;61.50
63219;DHT22;49320;52.512;13.448;2024-02-23T08:51:28;12.50;61.50
63219;DHT22;49320;52.512;13.448;2024-02-23T08:53:55;12.50;60.30
63219;DHT22;49320;52.512;13.448;2024-02-23T08:56:26;12.40;61.30
63219;DHT22;49320;52.512;13.448;2024-02-23T08:58:53;12.60;61.30
63219;DHT22;49320;52.512;13.448;2024-02-23T09:01:21;12.60;60.00
63219;DHT22;49320;52.512;13.448;2024-02-23T09:03:48;12.60;61.10
63219;DHT22;49320;52.512;13.448;2024-02-23T09:06:14;12.60;60.80
63219;DHT22;49320;52.512;13.448;2024-02-23T09:08:41;12.70;60.50
63219;DHT22;49320;52.512;13.448;2024-02-23T09:11:08;12.60;60.70
63219;DHT22;49320;52.512;13.448;2024-02-23T09:13:38;12.50;60.50
63219;DHT22;49320;52.512;13.448;2024-02-23T09:16:05;12.60;59.30
63219;DHT22;49320;52.512;13.448;2024-02-23T09:18:33;12.60;60.50
63219;DHT22;49320;52.512;13.448;2024-02-23T09:21:00;12.70;59.40
63219;DHT22;49320;52.512;13.448;2024-02-23T09:23:27;12.70;58.80
63219;DHT22;49320;52.512;13.448;2024-02-23T09:25:54;12.70;58.30
63219;DHT22;49320;52.512;13.448;2024-02-23T09:28:21;12.80;59.80
63219;DHT22;49320;52.512;13.448;2024-02-23T09:30:48;12.80;60.00
63219;DHT22;49320;52.512;13.448;2024-02-23T09:33:15;12.70;59.90
63219;DHT22;49320;52.512;13.448;2024-02-23T09:35:42;12.80;59.90
63219;DHT22;49320;52.512;13.448;2024-02-23T09:38:09;12.80;60.10
63219;DHT22;49320;52.512;13.448;2024-02-23T09:40:36;12.80;60.00
63219;DHT22;49320;52.512;13.448;2024-02-23T09:43:03;12.90;60.00
63219;DHT22;49320;52.512;13.448;2024-02-23T09:45:34;12.90;59.70
63219;DHT22;49320;52.512;13.448;2024-02-23T09:48:02;12.90;59.30
63219;DHT22;49320;52.512;13.448;2024-02-23T09:50:31;12.90;59.40
63219;DHT22;49320;52.512;13.448;2024-02-23T09:52:59;13.00;58.90
63219;DHT22;49320;52.512;13.448;2024-02-23T09:55:28;13.00;59.80
63219;DHT22;49320;52.512;13.448;2024-02-23T09:57:57;13.00;59.50
63219;DHT22;49320;52.512;13.448;2024-02-23T10:00:27;13.10;59.40
63219;DHT22;49320;52.512;13.448;2024-02-23T10:02:56;13.10;59.40
63219;DHT22;49320;52.512;13.448;2024-02-23T10:05:29;13.20;57.80
63219;DHT22;49320;52.512;13.448;2024-02-23T10:08:04;13.20;57.20
63219;DHT22;49320;52.512;13.448;2024-02-23T10:10:35;13.20;58.60
63219;DHT22;49320;52.512;13.448;2024-02-23T10:13:05;13.20;58.30
63219;DHT22;49320;52.512;13.448;2024-02-23T10:15:32;13.20;58.70
63219;DHT22;49320;52.512;13.448;2024-02-23T10:17:59;13.20;58.60
63219;DHT22;49320;52.512;13.448;2024-02-23T10:20:26;13.20;58.40
63219;DHT22;49320;52.512;13.448;2024-02-23T10:22:53;13.20;58.50
63219;DHT22;49320;52.512;13.448;2024-02-23T10:25:21;12.90;58.70
63219;DHT22;49320;52.512;13.448;2024-02-23T10:27:48;13.20;58.80
63219;DHT22;49320;52.512;13.448;2024-02-23T10:30:15;13.20;58.70
63219;DHT22;49320;52.512;13.448;2024-02-23T10:32:42;13.20;58.90
63219;DHT22;49320;52.512;13.448;2024-02-23T10:35:14;13.30;59.10
63219;DHT22;49320;52.512;13.448;2024-02-23T10:37:43;13.40;58.80
63219;DHT22;49320;52.512;13.448;2024-02-23T10:40:14;13.70;59.30
63219;DHT22;49320;52.512;13.448;2024-02-23T10:42:44;13.50;58.80
63219;DHT22;49320;52.512;13.448;2024-02-23T10:45:18;13.60;58.80
63219;DHT22;49320;52.512;13.448;2024-02-23T10:47:46;13.60;58.50
63219;DHT22;49320;52.512;13.448;2024-02-23T10:50:14;13.70;58.40
63219;DHT22;49320;52.512;13.448;2024-02-23T10:52:42;14.50;58.70
63219;DHT22;49320;52.512;13.448;2024-02-23T10:55:10;13.70;58.00
63219;DHT22;49320;52.512;13.448;2024-02-23T10:57:37;13.80;59.30
63219;DHT22;49320;52.512;13.448;2024-02-23T11:00:08;13.80;57.90
63219;DHT22;49320;52.512;13.448;2024-02-23T11:02:49;13.80;57.40
63219;DHT22;49320;52.512;13.448;2024-02-23T11:05:18;13.90;57.30
63219;DHT22;49320;52.512;13.448;2024-02-23T11:07:46;13.90;57.40
63219;DHT22;49320;52.512;13.448;2024-02-23T11:10:15;13.90;57.40
63219;DHT22;49320;52.512;13.448;2024-02-23T11:12:43;14.10;57.30
63219;DHT22;49320;52.512;13.448;2024-02-23T11:15:29;14.10;57.40
63219;DHT22;49320;52.512;13.448;2024-02-23T11:17:57;13.30;55.90
63219;DHT22;49320;52.512;13.448;2024-02-23T11:20:34;14.20;55.70
63219;DHT22;49320;52.512;13.448;2024-02-23T11:23:02;14.20;56.50
63219;DHT22;49320;52.512;13.448;2024-02-23T11:25:39;14.30;55.20
63219;DHT22;49320;52.512;13.448;2024-02-23T11:28:06;14.30;56.60
63219;DHT22;49320;52.512;13.448;2024-02-23T11:30:33;14.20;56.10
63219;DHT22;49320;52.512;13.448;2024-02-23T11:33:08;14.30;56.80
63219;DHT22;49320;52.512;13.448;2024-02-23T11:35:34;14.30;56.40
63219;DHT22;49320;52.512;13.448;2024-02-23T11:38:03;14.30;56.60
63219;DHT22;49320;52.512;13.448;2024-02-23T11:40:32;14.40;56.60
63219;DHT22;49320;52.512;13.448;2024-02-23T11:42:59;14.40;56.70
63219;DHT22;49320;52.512;13.448;2024-02-23T11:45:30;14.40;55.00
63219;DHT22;49320;52.512;13.448;2024-02-23T11:47:58;14.50;56.30
63219;DHT22;49320;52.512;13.448;2024-02-23T11:50:26;14.50;56.50
63219;DHT22;49320;52.512;13.448;2024-02-23T11:52:53;14.50;56.40
63219;DHT22;49320;52.512;13.448;2024-02-23T11:55:21;14.50;56.00
63219;DHT22;49320;52.512;13.448;2024-02-23T11:57:50;14.50;54.70
63219;DHT22;49320;52.512;13.448;2024-02-23T12:00:30;14.50;54.30
63219;DHT22;49320;52.512;13.448;2024-02-23T12:02:58;14.40;55.80
63219;DHT22;49320;52.512;13.448;2024-02-23T12:05:24;14.40;56.10
63219;DHT22;49320;52.512;13.448;2024-02-23T12:07:51;14.40;55.90
63219;DHT22;49320;52.512;13.448;2024-02-23T12:10:20;14.70;55.40
63219;DHT22;49320;52.512;13.448;2024-02-23T12:12:47;14.50;55.70
63219;DHT22;49320;52.512;13.448;2024-02-23T12:15:14;14.50;55.20
63219;DHT22;49320;52.512;13.448;2024-02-23T12:17:50;14.60;55.30
63219;DHT22;49320;52.512;13.448;2024-02-23T12:20:19;14.60;55.00
63219;DHT22;49320;52.512;13.448;2024-02-23T12:22:47;14.60;54.40
63219;DHT22;49320;52.512;13.448;2024-02-23T12:25:14;14.70;54.70
63219;DHT22;49320;52.512;13.448;2024-02-23T12:27:42;14.70;54.00
63219;DHT22;49320;52.512;13.448;2024-02-23T12:30:15;14.70;55.30
63219;DHT22;49320;52.512;13.448;2024-02-23T12:32:43;14.70;54.90
63219;DHT22;49320;52.512;13.448;2024-02-23T12:35:11;14.70;52.90
63219;DHT22;49320;52.512;13.448;2024-02-23T12:37:39;14.70;55.10
63219;DHT22;49320;52.512;13.448;2024-02-23T12:40:10;14.70;54.70
63219;DHT22;49320;52.512;13.448;2024-02-23T12:42:38;14.70;54.60
63219;DHT22;49320;52.512;13.448;2024-02-23T12:45:04;14.70;54.40
63219;DHT22;49320;52.512;13.448;2024-02-23T12:47:31;14.60;54.90
63219;DHT22;49320;52.512;13.448;2024-02-23T12:49:58;14.60;54.90
63219;DHT22;49320;52.512;13.448;2024-02-23T12:52:26;14.60;54.10
63219;DHT22;49320;52.512;13.448;2024-02-23T12:54:53;14.60;55.00
63219;DHT22;49320;52.512;13.448;2024-02-23T12:57:20;13.90;54.40
63219;DHT22;49320;52.512;13.448;2024-02-23T12:59:47;14.60;54.10
63219;DHT22;49320;52.512;13.448;2024-02-23T13:02:14;14.60;54.50
63219;DHT22;49320;52.512;13.448;2024-02-23T13:04:41;14.60;54.70
63219;DHT22;49320;52.512;13.448;2024-02-23T13:07:09;14.70;53.50
63219;DHT22;49320;52.512;13.448;2024-02-23T13:09:36;14.70;54.70
63219;DHT22;49320;52.512;13.448;2024-02-23T13:12:03;14.60;54.20
63219;DHT22;49320;52.512;13.448;2024-02-23T13:14:31;14.60;54.00
63219;DHT22;49320;52.512;13.448;2024-02-23T13:16:57;14.60;54.30
63219;DHT22;49320;52.512;13.448;2024-02-23T13:19:24;14.90;55.10
63219;DHT22;49320;52.512;13.448;2024-02-23T13:21:52;14.60;54.80
63219;DHT22;49320;52.512;13.448;2024-02-23T13:24:21;14.60;54.30
63219;DHT22;49320;52.512;13.448;2024-02-23T13:26:47;14.60;53.20
63219;DHT22;49320;52.512;13.448;2024-02-23T13:29:15;14.60;54.50
63219;DHT22;49320;52.512;13.448;2024-02-23T13:31:42;14.60;54.40
63219;DHT22;49320;52.512;13.448;2024-02-23T13:34:09;14.60;53.20
63219;DHT22;49320;52.512;13.448;2024-02-23T13:36:37;14.60;55.00
63219;DHT22;49320;52.512;13.448;2024-02-23T13:39:04;14.70;53.10
63219;DHT22;49320;52.512;13.448;2024-02-23T13:41:31;14.60;54.40
63219;DHT22;49320;52.512;13.448;2024-02-23T13:46:25;14.70;53.00
63219;DHT22;49320;52.512;13.448;2024-02-23T13:49:03;14.60;53.90
63219;DHT22;49320;52.512;13.448;2024-02-23T13:51:33;14.60;53.00
63219;DHT22;49320;52.512;13.448;2024-02-23T13:54:00;14.60;53.00
63219;DHT22;49320;52.512;13.448;2024-02-23T13:56:27;14.50;54.20
63219;DHT22;49320;52.512;13.448;2024-02-23T14:01:21;14.60;53.70
63219;DHT22;49320;52.512;13.448;2024-02-23T14:03:48;14.50;54.30
63219;DHT22;49320;52.512;13.448;2024-02-23T14:06:15;14.50;53.00
63219;DHT22;49320;52.512;13.448;2024-02-23T14:08:42;14.50;54.20
63219;DHT22;49320;52.512;13.448;2024-02-23T14:11:10;14.50;54.30
63219;DHT22;49320;52.512;13.448;2024-02-23T14:13:37;14.50;54.10
63219;DHT22;49320;52.512;13.448;2024-02-23T14:16:05;14.40;54.10
63219;DHT22;49320;52.512;13.448;2024-02-23T14:18:32;14.40;53.60
63219;DHT22;49320;52.512;13.448;2024-02-23T14:21:04;14.40;54.20
63219;DHT22;49320;52.512;13.448;2024-02-23T14:23:31;14.40;54.20
63219;DHT22;49320;52.512;13.448;2024-02-23T14:26:01;14.40;52.90
63219;DHT22;49320;52.512;13.448;2024-02-23T14:28:28;14.30;54.10
63219;DHT22;49320;52.512;13.448;2024-02-23T14:30:55;14.30;54.30
63219;DHT22;49320;52.512;13.448;2024-02-23T14:33:22;14.10;53.50
63219;DHT22;49320;52.512;13.448;2024-02-23T14:35:49;14.30;53.70
63219;DHT22;49320;52.512;13.448;2024-02-23T14:38:16;14.20;53.80
63219;DHT22;49320;52.512;13.448;2024-02-23T14:40:44;14.20;53.40
63219;DHT22;49320;52.512;13.448;2024-02-23T14:43:11;14.10;52.90
63219;DHT22;49320;52.512;13.448;2024-02-23T14:45:37;14.10;54.00
63219;DHT22;49320;52.512;13.448;2024-02-23T14:48:05;14.10;54.00
63219;DHT22;49320;52.512;13.448;2024-02-23T14:50:32;14.00;54.00
63219;DHT22;49320;52.512;13.448;2024-02-23T14:52:59;14.00;54.10
63219;DHT22;49320;52.512;13.448;2024-02-23T14:55:26;14.00;53.20
63219;DHT22;49320;52.512;13.448;2024-02-23T14:57:54;13.90;54.10
63219;DHT22;49320;52.512;13.448;2024-02-23T15:00:20;13.90;53.00
63219;DHT22;49320;52.512;13.448;2024-02-23T15:02:47;13.70;54.30
63219;DHT22;49320;52.512;13.448;2024-02-23T15:05:14;13.80;54.20
63219;DHT22;49320;52.512;13.448;2024-02-23T15:07:41;13.80;54.10
63219;DHT22;49320;52.512;13.448;2024-02-23T15:10:08;13.80;53.00
63219;DHT22;49320;52.512;13.448;2024-02-23T15:12:36;13.80;54.00
63219;DHT22;49320;52.512;13.448;2024-02-23T15:15:03;13.70;54.00
63219;DHT22;49320;52.512;13.448;2024-02-23T15:17:31;13.70;53.10
63219;DHT22;49320;52.512;13.448;2024-02-23T15:19:58;13.70;54.20
63219;DHT22;49320;52.512;13.448;2024-02-23T15:22:25;13.70;54.30
63219;DHT22;49320;52.512;13.448;2024-02-23T15:24:52;13.80;55.00
63219;DHT22;49320;52.512;13.448;2024-02-23T15:27:19;13.60;54.50
63219;DHT22;49320;52.512;13.448;2024-02-23T15:29:46;13.80;54.90
63219;DHT22;49320;52.512;13.448;2024-02-23T15:32:14;13.60;53.30
63219;DHT22;49320;52.512;13.448;2024-02-23T15:37:12;13.60;53.60
63219;DHT22;49320;52.512;13.448;2024-02-23T15:39:39;13.70;54.90
63219;DHT22;49320;52.512;13.448;2024-02-23T15:42:05;13.60;54.50
63219;DHT22;49320;52.512;13.448;2024-02-23T15:44:32;14.10;54.90